Time;durP1;ratioP1;P1;durP2;ratioP2;P2;SDS_P1;SDS_P2;PMS_P1;PMS_P2;Temp;Humidity;BMP_temperature;BMP_pressure;BME280_temperature;BME280_humidity;BME280_pressure;Samples;Min_cycle;Max_cycle;Signal;HPM_P1;HPM_P2
2022/02/02 00:01:46;;;;;;;91.13;49.23;;;;;;;-0.34;61.86;99739.91;125202;1102;104172;-82
2022/02/02 00:04:23;;;;;;;91.60;50.23;;;;;;;-0.37;60.95;99737.13;124956;1102;104393;-81
2022/02/02 00:07:03;;;;;;;96.20;52.65;;;;;;;-0.42;60.91;99734.25;124944;1102;104163;-82
2022/02/02 00:09:36;;;;;;;98.20;51.67;;;;;;;-0.43;61.14;99726.41;125020;1106;104893;-82
2022/02/02 00:12:17;;;;;;;95.53;51.10;;;;;;;-0.44;62.04;99722.03;125034;1105;104149;-82
2022/02/02 00:14:59;;;;;;;97.53;51.77;;;;;;;-0.46;60.99;99723.62;124930;1105;104220;-82
2022/02/02 00:17:43;;;;;;;102.93;54.43;;;;;;;-0.47;60.97;99730.45;124888;1105;104383;-81
2022/02/02 00:20:23;;;;;;;97.90;54.23;;;;;;;-0.48;60.86;99731.25;124877;1103;104389;-81
2022/02/02 00:22:59;;;;;;;94.37;49.77;;;;;;;-0.51;61.49;99731.05;124871;1105;104554;-82
2022/02/02 00:25:35;;;;;;;91.73;50.73;;;;;;;-0.55;61.01;99729.96;124939;1105;104226;-81
2022/02/02 00:28:07;;;;;;;98.93;50.17;;;;;;;-0.58;61.23;99728.84;124976;1105;104194;-81
2022/02/02 00:30:39;;;;;;;104.40;53.93;;;;;;;-0.61;62.05;99737.28;124959;1105;104393;-82
2022/02/02 00:33:22;;;;;;;105.57;53.00;;;;;;;-0.62;62.16;99739.75;124910;1105;104149;-83
2022/02/02 00:36:01;;;;;;;97.67;51.20;;;;;;;-0.66;61.17;99740.32;125063;1105;104300;-82
2022/02/02 00:38:33;;;;;;;98.13;53.37;;;;;;;-0.70;61.85;99738.31;125040;1105;104177;-82
2022/02/02 00:41:05;;;;;;;101.93;55.23;;;;;;;-0.73;61.55;99728.72;125061;1102;104376;-81
2022/02/02 00:43:39;;;;;;;97.90;53.00;;;;;;;-0.74;61.72;99725.22;125123;1102;104175;-81
2022/02/02 00:46:15;;;;;;;105.83;54.53;;;;;;;-0.76;61.96;99706.20;124913;1102;104172;-82
2022/02/02 00:49:00;;;;;;;101.43;53.50;;;;;;;-0.77;61.44;99703.52;125203;1102;104130;-83
2022/02/02 00:51:42;;;;;;;101.93;54.03;;;;;;;-0.80;62.19;99693.89;124906;1102;104253;-83
2022/02/02 00:54:15;;;;;;;103.30;53.37;;;;;;;-0.83;62.67;99688.53;125137;1102;104319;-82
2022/02/02 00:56:47;;;;;;;106.60;55.47;;;;;;;-0.84;61.70;99696.16;125040;1102;104152;-82
2022/02/02 00:59:21;;;;;;;107.33;54.53;;;;;;;-0.87;62.10;99677.91;125182;1102;104159;-81
2022/02/02 01:01:53;;;;;;;113.30;58.13;;;;;;;-0.87;62.14;99676.25;125065;1102;104176;-82
2022/02/02 01:04:26;;;;;;;105.47;54.10;;;;;;;-0.87;62.26;99672.77;125074;1102;104255;-83
2022/02/02 01:07:05;;;;;;;103.43;55.47;;;;;;;-0.86;62.15;99674.56;125066;1102;104152;-83
2022/02/02 01:09:43;;;;;;;109.70;54.40;;;;;;;-0.87;61.75;99671.11;124994;1102;104147;-83
2022/02/02 01:20:54;;;;;;;112.57;56.53;;;;;;;-0.95;62.48;99659.36;125156;1102;104172;-81
2022/02/02 01:29:09;;;;;;;108.43;56.43;;;;;;;-0.98;63.10;99639.47;125079;1102;104156;-82
2022/02/02 01:31:41;;;;;;;109.77;56.73;;;;;;;-0.98;62.66;99638.55;125148;1102;104188;-83
2022/02/02 01:34:13;;;;;;;105.07;55.57;;;;;;;-0.99;62.03;99632.52;125140;1102;104258;-81
2022/02/02 01:36:45;;;;;;;110.77;55.27;;;;;;;-1.01;62.72;99640.92;124984;1102;118901;-83
2022/02/02 01:39:17;;;;;;;106.53;55.20;;;;;;;-1.02;63.34;99639.16;124973;1102;104246;-83
2022/02/02 01:41:49;;;;;;;109.20;52.70;;;;;;;-1.07;63.34;99638.84;125231;1102;104157;-82
2022/02/02 01:44:29;;;;;;;107.33;56.73;;;;;;;-1.10;62.43;99636.95;125151;1102;104249;-81
2022/02/02 01:47:02;;;;;;;109.73;55.40;;;;;;;-1.12;63.38;99633.38;125172;1102;104178;-81
2022/02/02 01:52:47;;;;;;;110.47;57.07;;;;;;;-1.10;62.39;99642.09;124983;1102;104163;-83
2022/02/02 01:55:28;;;;;;;105.10;53.63;;;;;;;-1.11;63.08;99640.33;125120;1102;104251;-82
2022/02/02 01:58:08;;;;;;;106.53;55.03;;;;;;;-1.11;63.05;99635.18;125265;1101;104624;-82
2022/02/02 02:00:40;;;;;;;107.50;56.30;;;;;;;-1.11;63.76;99624.88;125026;1105;104296;-82
2022/02/02 02:03:11;;;;;;;107.00;53.47;;;;;;;-1.11;63.02;99626.54;125035;1105;104357;-82
2022/02/02 02:05:43;;;;;;;102.83;53.00;;;;;;;-1.15;62.73;99624.56;124955;1104;104373;-83
2022/02/02 02:08:14;;;;;;;108.80;54.10;;;;;;;-1.19;62.82;99626.02;125030;1105;104191;-80
2022/02/02 02:10:46;;;;;;;109.37;52.83;;;;;;;-1.25;63.11;99632.44;124991;1104;104194;-82
2022/02/02 02:13:32;;;;;;;101.57;54.10;;;;;;;-1.29;63.22;99629.66;125056;1105;104179;-82
2022/02/02 02:16:04;;;;;;;109.27;53.07;;;;;;;-1.30;63.90;99632.12;125012;1105;104137;-82
2022/02/02 02:18:36;;;;;;;105.47;54.13;;;;;;;-1.31;63.09;99623.52;125020;1105;104249;-82
2022/02/02 02:21:12;;;;;;;111.30;54.30;;;;;;;-1.31;63.69;99626.09;125056;1105;104303;-82
2022/02/02 02:23:46;;;;;;;104.73;54.50;;;;;;;-1.29;63.20;99611.64;125027;1105;104169;-82
2022/02/02 02:26:25;;;;;;;106.60;53.43;;;;;;;-1.28;63.01;99605.71;125011;1105;104274;-82
2022/02/02 02:29:15;;;;;;;107.20;53.03;;;;;;;-1.29;63.71;99608.18;124965;1102;103936;-82
2022/02/02 02:31:58;;;;;;;108.10;54.30;;;;;;;-1.30;63.91;99608.95;125249;1102;104204;-83
2022/02/02 02:34:42;;;;;;;111.70;55.47;;;;;;;-1.30;62.87;99616.68;125259;1102;104156;-82
2022/02/02 02:37:36;;;;;;;108.63;52.13;;;;;;;-1.31;62.74;99608.08;125234;1102;104142;-83
2022/02/02 02:40:23;;;;;;;105.57;54.40;;;;;;;-1.32;62.91;99605.40;125196;1102;104172;-82
2022/02/02 02:57:01;;;;;;;92.80;43.93;;;;;;;-1.58;63.54;99588.16;126339;1099;104156;-82
2022/02/02 02:59:41;;;;;;;85.10;42.63;;;;;;;-1.59;63.69;99612.09;126333;1099;104235;-82
2022/02/02 03:02:53;;;;;;;86.90;41.83;;;;;;;-1.61;63.91;99614.56;126333;1098;104284;-83
2022/02/02 03:14:30;;;;;;;88.93;42.30;;;;;;;-1.77;64.54;99610.03;126298;1099;104227;-82
2022/02/02 03:30:59;;;;;;;90.57;44.80;;;;;;;-1.64;63.97;99604.05;126345;1099;104153;-82
2022/02/02 03:59:09;;;;;;;91.70;45.40;;;;;;;-1.68;65.41;99599.51;126273;1099;104232;-83
2022/02/02 04:02:04;;;;;;;106.27;48.80;;;;;;;-1.69;64.48;99590.88;126224;1099;104194;-83
2022/02/02 04:04:55;;;;;;;99.13;48.20;;;;;;;-1.66;64.63;99593.66;126379;1099;104312;-83
2022/02/02 04:07:42;;;;;;;95.87;47.30;;;;;;;-1.64;65.59;99591.20;126276;1099;104249;-83
2022/02/02 04:10:14;;;;;;;105.20;49.87;;;;;;;-1.64;65.22;99584.39;126038;1098;108127;-82
2022/02/02 04:12:58;;;;;;;98.70;46.33;;;;;;;-1.62;64.83;99592.22;126098;1099;104185;-82
2022/02/02 04:38:55;;;;;;;88.73;45.20;;;;;;;-1.67;64.61;99586.75;126301;1099;104152;-80
2022/02/02 04:53:28;;;;;;;90.07;42.03;;;;;;;-1.77;64.83;99593.72;125284;1099;104287;-80
2022/02/02 04:55:58;;;;;;;99.20;46.50;;;;;;;-1.83;65.43;99594.17;125306;1099;104191;-80
2022/02/02 04:58:40;;;;;;;108.73;49.30;;;;;;;-1.84;65.06;99600.09;125351;1099;104635;-80
2022/02/02 05:06:49;;;;;;;104.67;50.73;;;;;;;-1.87;65.31;99603.36;125221;1099;104335;-80
2022/02/02 05:09:34;;;;;;;113.37;53.97;;;;;;;-1.89;65.96;99602.34;125294;1099;104229;-78
2022/02/02 05:12:57;;;;;;;103.13;53.13;;;;;;;-1.86;66.27;99606.81;125320;1099;110238;-79
2022/02/02 05:18:16;;;;;;;113.63;53.77;;;;;;;-1.83;66.12;99601.89;126342;1099;104405;-81
2022/02/02 05:21:12;;;;;;;;;;;;;;;-1.82;66.56;99602.00;126208;1099;104312;-81
2022/02/02 05:43:55;;;;;;;100.12;49.03;;;;;;;-1.68;65.62;99602.96;126249;1099;104386;-81
2022/02/02 05:49:33;;;;;;;94.10;47.67;;;;;;;-1.59;65.86;99607.87;126115;1099;104319;-81
2022/02/02 05:52:05;;;;;;;96.90;44.73;;;;;;;-1.54;65.66;99603.92;126054;1099;104157;-82
2022/02/02 05:54:37;;;;;;;89.37;44.77;;;;;;;-1.49;65.93;99607.69;125927;1099;104264;-81
2022/02/02 05:57:12;;;;;;;91.27;45.27;;;;;;;-1.42;66.57;99597.83;126028;1099;104259;-80
2022/02/02 05:59:45;;;;;;;88.43;44.63;;;;;;;-1.38;66.87;99603.28;125994;1099;104338;-80
2022/02/02 06:02:19;;;;;;;74.03;38.97;;;;;;;-1.32;67.00;99595.10;125859;1099;104217;-81
2022/02/02 06:04:53;;;;;;;74.80;40.05;;;;;;;-1.25;66.48;99593.83;126094;1099;104826;-80
2022/02/02 06:07:25;;;;;;;78.17;38.87;;;;;;;-1.19;66.69;99592.55;126240;1099;104159;-80
2022/02/02 06:09:59;;;;;;;77.33;39.33;;;;;;;-1.12;67.30;99594.77;126478;1099;104278;-80
2022/02/02 06:12:32;;;;;;;76.23;36.73;;;;;;;-1.04;66.37;99594.36;126348;1099;104318;-80
2022/02/02 06:15:10;;;;;;;72.43;37.87;;;;;;;-0.98;67.20;99600.84;126359;1099;104267;-80
2022/02/02 06:17:47;;;;;;;62.67;29.87;;;;;;;-0.91;66.92;99592.71;126399;1099;104146;-81
2022/02/02 06:20:20;;;;;;;60.73;29.17;;;;;;;-0.80;66.95;99597.70;126363;1099;104153;-80
2022/02/02 06:23:00;;;;;;;60.27;28.60;;;;;;;-0.71;67.19;99594.84;126253;1099;104191;-80
2022/02/02 06:25:33;;;;;;;61.30;30.43;;;;;;;-0.61;67.23;99602.37;126240;1099;101951;-80
2022/02/02 06:28:06;;;;;;;58.77;28.93;;;;;;;-0.53;66.72;99600.29;126248;1099;104230;-80
2022/02/02 06:30:38;;;;;;;56.93;26.53;;;;;;;-0.44;67.42;99600.89;126350;1099;104146;-80
2022/02/02 06:33:12;;;;;;;60.37;26.63;;;;;;;-0.36;66.97;99594.53;126182;1099;104246;-81
2022/02/02 06:35:42;;;;;;;;;;;;;;;-0.29;67.56;99593.27;126156;1099;104303;-81
2022/02/02 06:38:17;;;;;;;56.73;26.10;;;;;;;-0.25;66.85;99590.98;126093;1098;104166;-81
2022/02/02 06:40:51;;;;;;;45.43;22.50;;;;;;;-0.19;67.87;99593.95;126135;1099;104243;-81
2022/02/02 06:43:23;;;;;;;47.60;25.27;;;;;;;-0.13;67.18;99592.55;126002;1099;104640;-81
2022/02/02 06:45:57;;;;;;;54.70;26.27;;;;;;;-0.07;67.18;99591.23;125821;1099;104142;-83
2022/02/02 06:48:31;;;;;;;57.27;28.33;;;;;;;0.00;66.80;99589.97;126048;1099;104149;-81
2022/02/02 06:51:11;;;;;;;55.90;25.90;;;;;;;0.06;67.78;99586.86;125806;1099;104226;-82
2022/02/02 06:54:18;;;;;;;55.57;26.47;;;;;;;0.11;67.18;99580.28;125791;1099;104269;-79
2022/02/02 06:57:17;;;;;;;54.03;27.60;;;;;;;0.19;67.38;99592.00;125843;1098;104227;-78
2022/02/02 07:00:05;;;;;;;55.93;27.27;;;;;;;0.28;67.48;99587.41;125814;1098;104222;-78
2022/02/02 07:02:47;;;;;;;54.37;27.33;;;;;;;0.40;67.85;99587.25;125794;1099;104306;-79
2022/02/02 07:05:46;;;;;;;54.83;26.70;;;;;;;0.52;67.67;99581.95;125807;1099;104179;-80
2022/02/02 07:08:37;;;;;;;48.70;23.47;;;;;;;0.62;68.21;99571.37;125051;1099;104266;-81
2022/02/02 07:11:21;;;;;;;43.60;21.90;;;;;;;0.71;67.57;99571.05;125825;1099;104195;-81
2022/02/02 07:14:08;;;;;;;44.67;22.10;;;;;;;0.80;67.66;99574.17;125869;1099;104204;-82
2022/02/02 07:16:50;;;;;;;50.43;22.27;;;;;;;0.90;67.35;99583.35;125848;1099;104146;-81
2022/02/02 07:19:40;;;;;;;44.07;21.97;;;;;;;0.99;67.57;99570.98;124995;1099;104657;-81
2022/02/02 07:22:42;;;;;;;45.43;20.17;;;;;;;1.06;67.67;99569.64;125204;1099;104659;-81
2022/02/02 07:25:39;;;;;;;46.17;20.77;;;;;;;1.15;67.86;99571.88;125074;1102;104405;-81
2022/02/02 07:28:16;;;;;;;42.20;20.03;;;;;;;1.22;67.33;99568.86;125107;1099;103003;-81
2022/02/02 07:31:02;;;;;;;41.00;20.27;;;;;;;1.28;67.62;99568.30;125150;1099;104328;-80
2022/02/02 07:33:42;;;;;;;43.00;19.43;;;;;;;1.31;67.37;99561.64;125099;1099;104457;-80
2022/02/02 07:36:29;;;;;;;43.77;20.40;;;;;;;1.35;67.24;99562.69;125155;1099;104306;-80
2022/02/02 07:39:08;;;;;;;41.10;19.65;;;;;;;1.42;67.68;99563.13;125149;1099;104287;-80
2022/02/02 07:41:50;;;;;;;40.77;19.50;;;;;;;1.51;67.85;99559.28;125093;1099;104217;-81
2022/02/02 07:44:29;;;;;;;42.27;18.97;;;;;;;1.56;67.92;99565.63;125225;1102;105473;-80
2022/02/02 07:47:07;;;;;;;48.27;20.70;;;;;;;1.57;67.63;99562.21;125219;1102;104332;-79
2022/02/02 07:49:53;;;;;;;44.40;20.20;;;;;;;1.61;67.18;99554.71;125173;1102;104418;-80
2022/02/02 07:52:33;;;;;;;38.03;18.67;;;;;;;1.69;67.36;99555.14;125122;1099;104232;-80
2022/02/02 07:55:10;;;;;;;42.93;21.17;;;;;;;1.76;67.96;99549.52;125136;1102;104345;-80
2022/02/02 07:57:48;;;;;;;41.80;19.00;;;;;;;1.81;67.55;99552.36;125182;1102;104223;-80
2022/02/02 08:00:23;;;;;;;41.70;19.87;;;;;;;1.83;67.67;99555.03;125077;1101;104194;-80
2022/02/02 08:03:05;;;;;;;39.97;18.97;;;;;;;1.84;67.97;99546.44;125046;1102;104303;-81
2022/02/02 08:05:45;;;;;;;39.05;19.62;;;;;;;1.85;67.28;99553.41;125039;1102;104374;-81
2022/02/02 08:08:32;;;;;;;42.37;20.33;;;;;;;1.88;67.07;99544.11;125017;1102;104320;-80
2022/02/02 08:11:09;;;;;;;46.17;19.43;;;;;;;1.96;67.64;99535.09;125103;1102;104383;-80
2022/02/02 08:13:47;;;;;;;42.40;18.67;;;;;;;2.07;67.50;99542.53;124953;1102;104280;-82
2022/02/02 08:16:22;;;;;;;38.20;18.37;;;;;;;2.14;67.44;99529.13;124993;1099;107021;-80
2022/02/02 08:18:57;;;;;;;40.50;19.00;;;;;;;2.23;67.58;99529.61;125039;1102;104178;-81
2022/02/02 08:21:30;;;;;;;37.20;18.37;;;;;;;2.30;67.34;99521.34;125103;1099;103274;-81
2022/02/02 08:24:08;;;;;;;41.80;19.15;;;;;;;2.38;67.92;99523.45;125128;1099;103162;-81
2022/02/02 08:26:42;;;;;;;40.10;19.10;;;;;;;2.41;67.88;99529.67;125096;1099;118592;-80
2022/02/02 08:29:22;;;;;;;36.53;18.10;;;;;;;2.46;67.32;99524.73;125004;1102;104200;-80
2022/02/02 08:31:54;;;;;;;38.33;17.70;;;;;;;2.48;67.80;99528.32;125109;1102;104639;-80
2022/02/02 08:34:37;;;;;;;41.75;18.85;;;;;;;2.54;67.32;99518.28;125276;1099;104339;-81
2022/02/02 08:37:11;;;;;;;42.87;17.43;;;;;;;2.63;67.37;99518.76;125869;1098;104191;-82
2022/02/02 08:40:01;;;;;;;35.85;16.20;;;;;;;2.73;67.64;99524.38;125849;1099;104185;-83
2022/02/02 08:42:35;;;;;;;35.10;16.80;;;;;;;2.80;67.59;99518.71;125931;1099;104309;-81
2022/02/02 08:45:18;;;;;;;37.20;16.40;;;;;;;2.87;67.63;99520.81;126026;1098;103245;-81
2022/02/02 08:48:01;;;;;;;38.80;17.45;;;;;;;2.91;67.24;99514.08;126096;1099;104168;-81
2022/02/02 08:50:46;;;;;;;36.40;17.50;;;;;;;2.96;67.87;99522.95;126255;1099;104277;-82
2022/02/02 08:54:05;;;;;;;37.97;17.47;;;;;;;3.01;67.72;99516.33;126195;1099;104258;-82
2022/02/02 08:59:48;;;;;;;40.30;20.53;;;;;;;3.14;67.57;99523.88;125954;1099;104207;-82
2022/02/02 09:02:55;;;;;;;42.97;20.87;;;;;;;3.19;68.00;99530.17;125987;1100;104274;-82
2022/02/02 09:05:31;;;;;;;39.23;20.33;;;;;;;3.29;67.63;99521.17;125901;1099;104179;-83
2022/02/02 09:08:09;;;;;;;41.23;18.87;;;;;;;3.36;67.24;99515.44;125955;1099;104226;-82
2022/02/02 09:25:15;;;;;;;39.97;18.97;;;;;;;3.46;67.18;99490.87;125155;1102;104422;-81
2022/02/02 09:33:58;;;;;;;45.33;20.40;;;;;;;3.72;67.12;99473.03;125293;1099;104143;-81
2022/02/02 09:36:45;;;;;;;39.40;20.50;;;;;;;3.81;67.12;99467.39;125199;1099;104350;-81
2022/02/02 09:39:32;;;;;;;43.37;19.33;;;;;;;3.86;67.36;99471.95;125232;1099;104861;-82
2022/02/02 09:42:18;;;;;;;40.50;18.30;;;;;;;3.87;67.13;99471.14;125210;1099;104178;-82
2022/02/02 09:44:57;;;;;;;36.20;17.55;;;;;;;3.88;67.33;99470.34;125198;1102;104181;-81
2022/02/02 09:47:35;;;;;;;33.43;17.37;;;;;;;3.90;66.79;99470.41;125170;1102;104191;-81
2022/02/02 09:50:18;;;;;;;36.00;17.67;;;;;;;3.92;66.92;99455.78;125245;1102;104335;-81
2022/02/02 09:52:57;;;;;;;37.70;17.50;;;;;;;3.96;66.62;99463.78;125175;1102;104507;-80
2022/02/02 09:56:07;;;;;;;37.90;16.77;;;;;;;3.99;67.13;99459.53;125169;1101;104319;-81
2022/02/02 09:59:04;;;;;;;39.27;16.20;;;;;;;4.06;66.60;99448.62;125112;1102;109340;-82
2022/02/02 10:02:08;;;;;;;35.70;16.10;;;;;;;4.14;66.74;99455.94;125158;1103;104194;-80
2022/02/02 10:05:02;;;;;;;32.53;13.93;;;;;;;4.21;67.24;99441.52;125250;1099;104320;-80
2022/02/02 10:14:04;;;;;;;33.23;14.70;;;;;;;4.44;66.62;99420.83;125079;1102;104182;-77
2022/02/02 10:16:48;;;;;;;26.77;12.13;;;;;;;4.48;66.43;99427.94;125118;1102;104338;-79
2022/02/02 10:19:20;;;;;;;27.77;11.03;;;;;;;4.43;65.65;99419.95;125118;1102;118803;-80
2022/02/02 10:21:53;;;;;;;27.10;11.20;;;;;;;4.41;64.95;99420.70;125019;1102;104024;-79
2022/02/02 10:24:45;;;;;;;27.80;11.07;;;;;;;4.42;65.97;99414.69;125175;1102;104133;-80
2022/02/02 10:27:32;;;;;;;28.60;11.43;;;;;;;4.46;65.67;99411.41;125088;1102;104297;-80
2022/02/02 10:30:15;;;;;;;31.30;12.00;;;;;;;4.47;64.21;99414.08;125086;1102;102914;-80
2022/02/02 10:32:52;;;;;;;31.50;11.83;;;;;;;4.48;64.71;99417.55;125166;1102;104210;-80
2022/02/02 10:35:38;;;;;;;28.47;11.53;;;;;;;4.48;65.36;99409.75;125115;1102;104233;-79
2022/02/02 10:38:13;;;;;;;27.33;12.00;;;;;;;4.45;65.27;99415.70;124997;1102;104395;-78
2022/02/02 10:40:52;;;;;;;27.87;12.03;;;;;;;4.47;65.02;99413.16;125004;1102;104300;-78
2022/02/02 10:43:34;;;;;;;34.37;12.97;;;;;;;4.57;65.73;99415.34;125037;1102;104220;-78
2022/02/02 10:46:23;;;;;;;31.10;12.27;;;;;;;4.63;65.56;99422.52;125452;1099;104200;-79
2022/02/02 10:49:12;;;;;;;28.53;11.33;;;;;;;4.70;65.49;99415.86;125673;1098;102184;-79
2022/02/02 10:51:58;;;;;;;26.67;11.47;;;;;;;4.76;65.29;99414.39;126527;1098;104185;-80
2022/02/02 10:54:36;;;;;;;28.10;13.07;;;;;;;4.76;64.91;99406.59;125795;1099;104216;-80
2022/02/02 10:57:27;;;;;;;29.47;11.07;;;;;;;4.75;64.12;99396.14;125838;1099;104296;-80
2022/02/02 11:00:09;;;;;;;28.80;12.00;;;;;;;4.73;64.28;99392.59;125758;1099;104217;-80
2022/02/02 11:08:30;;;;;;;30.67;11.60;;;;;;;4.79;64.56;99390.25;124980;1102;104149;-79
2022/02/02 11:11:08;;;;;;;32.57;12.37;;;;;;;4.81;64.62;99373.88;124988;1099;104172;-80
2022/02/02 11:13:44;;;;;;;29.07;11.97;;;;;;;4.90;64.94;99368.17;124985;1102;104245;-80
2022/02/02 11:16:27;;;;;;;28.73;12.60;;;;;;;4.95;64.23;99366.63;124963;1099;104542;-80
2022/02/02 11:19:01;;;;;;;30.23;12.53;;;;;;;4.99;64.15;99365.06;125041;1099;104172;-80
2022/02/02 11:21:37;;;;;;;27.87;12.27;;;;;;;4.96;64.30;99363.22;125035;1099;104312;-79
2022/02/02 11:24:20;;;;;;;29.57;12.83;;;;;;;4.99;63.62;99355.55;125006;1099;104220;-80
2022/02/02 11:26:56;;;;;;;31.17;12.47;;;;;;;5.06;64.59;99354.06;125014;1099;104334;-80
2022/02/02 11:29:45;;;;;;;28.13;13.03;;;;;;;5.15;64.37;99361.34;124953;1099;103993;-79
2022/02/02 11:32:20;;;;;;;28.63;12.33;;;;;;;5.21;64.40;99366.78;124981;1102;104174;-79
2022/02/02 11:35:30;;;;;;;30.17;12.30;;;;;;;5.30;64.19;99369.75;124976;1099;104227;-79
2022/02/02 11:38:11;;;;;;;31.80;12.77;;;;;;;5.37;64.50;99368.26;125025;1099;104171;-79
2022/02/02 11:41:17;;;;;;;30.07;12.07;;;;;;;5.40;63.97;99357.97;125272;1099;103014;-79
2022/02/02 11:44:13;;;;;;;29.27;12.53;;;;;;;5.39;63.63;99367.50;125800;1099;104184;-78
2022/02/02 11:46:53;;;;;;;27.83;11.07;;;;;;;5.47;63.70;99365.19;125727;1099;104205;-79
2022/02/02 11:49:46;;;;;;;29.87;11.73;;;;;;;5.46;63.46;99366.01;125855;1099;104310;-79
2022/02/02 11:52:50;;;;;;;28.87;11.43;;;;;;;5.52;63.94;99363.64;125715;1099;105165;-80
2022/02/02 11:55:50;;;;;;;29.40;11.40;;;;;;;5.59;63.39;99356.94;125830;1099;104376;-79
2022/02/02 11:58:33;;;;;;;28.40;12.10;;;;;;;5.62;63.75;99364.86;125731;1099;104233;-79
2022/02/02 12:01:25;;;;;;;27.00;11.43;;;;;;;5.61;63.57;99356.99;125749;1098;104211;-79
2022/02/02 12:04:25;;;;;;;29.70;11.60;;;;;;;5.65;63.70;99362.38;126122;1099;104277;-79
2022/02/02 12:07:12;;;;;;;26.47;10.80;;;;;;;5.67;63.62;99352.92;126296;1099;104172;-80
2022/02/02 12:10:06;;;;;;;28.43;10.73;;;;;;;5.67;63.01;99358.13;126101;1099;104313;-81
2022/02/02 12:19:37;;;;;;;29.03;10.60;;;;;;;5.61;62.76;99355.30;126162;1099;104187;-80
2022/02/02 12:47:14;;;;;;;32.53;10.77;;;;;;;5.58;61.95;99362.99;125717;1099;104241;-81
2022/02/02 12:50:16;;;;;;;27.30;10.63;;;;;;;5.55;61.56;99352.47;125385;1099;102785;-81
2022/02/02 12:56:26;;;;;;;29.20;11.17;;;;;;;5.49;61.60;99341.83;126090;1099;104214;-81
2022/02/02 13:02:14;;;;;;;24.97;10.80;;;;;;;5.47;61.00;99335.66;125274;1102;104185;-81
2022/02/02 13:04:52;;;;;;;28.47;12.20;;;;;;;5.43;61.08;99336.39;125920;1099;104179;-82
2022/02/02 13:07:27;;;;;;;31.30;12.00;;;;;;;5.34;60.39;99322.19;125968;1099;104188;-81
2022/02/02 13:10:02;;;;;;;28.83;11.07;;;;;;;5.27;60.04;99317.61;126026;1099;104287;-80
2022/02/02 13:12:41;;;;;;;29.23;12.27;;;;;;;5.24;60.79;99322.69;125986;1099;104792;-82
2022/02/02 13:15:20;;;;;;;29.43;12.33;;;;;;;5.21;60.40;99331.25;125909;1099;104334;-79
2022/02/02 13:21:13;;;;;;;28.27;12.47;;;;;;;5.21;60.89;99364.19;125079;1102;104179;-80
2022/02/02 13:23:56;;;;;;;32.20;13.03;;;;;;;5.20;61.09;99362.40;125050;1102;104233;-80
2022/02/02 13:26:38;;;;;;;25.83;11.90;;;;;;;5.17;60.89;99363.19;125187;1102;104179;-81
2022/02/02 13:29:26;;;;;;;30.77;12.00;;;;;;;5.14;60.56;99368.27;124863;1102;104303;-81
2022/02/02 13:32:12;;;;;;;29.23;12.27;;;;;;;5.14;61.44;99364.77;124818;1102;104278;-81
2022/02/02 13:34:59;;;;;;;30.87;12.87;;;;;;;5.13;60.73;99368.21;125061;1102;104152;-79
2022/02/02 13:37:51;;;;;;;31.30;12.70;;;;;;;5.12;61.04;99371.62;124893;1102;104185;-80
2022/02/02 13:43:39;;;;;;;30.47;11.93;;;;;;;5.03;60.59;99378.25;124669;1105;104221;-80
2022/02/02 13:46:37;;;;;;;36.50;13.10;;;;;;;4.98;61.82;99387.55;124853;1104;104415;-80
2022/02/02 13:49:49;;;;;;;29.97;12.53;;;;;;;4.96;61.35;99386.62;124584;1106;104217;-80
2022/02/02 13:52:54;;;;;;;33.70;13.30;;;;;;;4.94;60.94;99396.08;124847;1106;102865;-81
2022/02/02 13:55:46;;;;;;;32.87;12.47;;;;;;;4.93;60.98;99399.48;124966;1106;105518;-80
2022/02/02 13:58:36;;;;;;;37.07;13.07;;;;;;;4.92;61.37;99392.50;124843;1105;104247;-80
2022/02/02 14:01:17;;;;;;;31.77;12.10;;;;;;;4.90;60.99;99386.37;124785;1105;104322;-81
2022/02/02 14:04:05;;;;;;;31.97;12.60;;;;;;;4.88;61.33;99384.52;124669;1106;103986;-80
2022/02/02 14:06:47;;;;;;;33.53;13.27;;;;;;;4.85;60.95;99383.58;124676;1105;104185;-81
2022/02/02 14:09:33;;;;;;;31.10;11.87;;;;;;;4.80;61.03;99382.52;124728;1105;104424;-80
2022/02/02 14:32:29;;;;;;;32.13;13.03;;;;;;;4.39;60.70;99407.64;125118;1102;101861;-80
2022/02/02 14:35:05;;;;;;;31.43;12.27;;;;;;;4.34;60.63;99397.90;125051;1102;102378;-79
2022/02/02 14:37:43;;;;;;;30.23;12.50;;;;;;;4.29;60.46;99397.70;125250;1102;104182;-80
2022/02/02 14:40:25;;;;;;;33.33;13.47;;;;;;;4.25;60.18;99394.06;125049;1103;104306;-78
2022/02/02 14:43:01;;;;;;;32.10;12.40;;;;;;;4.19;60.69;99395.52;124764;1105;104270;-79
2022/02/02 14:45:36;;;;;;;33.43;13.10;;;;;;;4.16;60.48;99396.30;124992;1102;104161;-81
2022/02/02 14:48:21;;;;;;;31.60;13.17;;;;;;;4.12;61.15;99391.77;124803;1102;104066;-80
2022/02/02 14:51:11;;;;;;;34.70;12.83;;;;;;;4.07;60.22;99382.91;124770;1102;104171;-79
2022/02/02 14:53:53;;;;;;;33.57;12.77;;;;;;;4.02;61.05;99389.59;125082;1101;119053;-79
2022/02/02 15:05:17;;;;;;;30.23;13.73;;;;;;;3.98;60.40;99400.67;124807;1105;104338;-80
2022/02/02 15:23:44;;;;;;;39.43;16.43;;;;;;;3.59;60.54;99415.38;124817;1102;104206;-80
2022/02/02 15:28:21;;;;;;;42.15;16.67;;;;;;;3.40;60.23;99418.83;124984;1102;104177;-81
2022/02/02 15:31:02;;;;;;;35.77;16.30;;;;;;;3.37;60.48;99423.88;125075;1102;104348;-81
2022/02/02 15:33:35;;;;;;;38.00;16.80;;;;;;;3.34;60.56;99428.92;124986;1102;104204;-81
2022/02/02 15:42:15;;;;;;;73.03;34.70;;;;;;;3.21;60.78;99430.05;126122;1102;101728;-79
2022/02/02 15:59:10;;;;;;;47.93;21.43;;;;;;;3.15;60.98;99437.53;125012;1102;104177;-78
2022/02/02 16:04:35;;;;;;;51.97;21.33;;;;;;;3.07;60.70;99446.66;124949;1102;104149;-80
2022/02/02 16:07:18;;;;;;;49.33;18.37;;;;;;;3.04;61.37;99444.78;125149;1102;104634;-79
2022/02/02 16:09:53;;;;;;;41.10;17.33;;;;;;;3.02;60.44;99455.88;125177;1102;104067;-80
2022/02/02 16:12:30;;;;;;;48.03;18.43;;;;;;;3.00;60.90;99460.98;124950;1103;104189;-82
2022/02/02 16:15:16;;;;;;;45.93;18.33;;;;;;;2.98;60.43;99462.63;124924;1101;102209;-82
2022/02/02 16:18:20;;;;;;;43.53;17.83;;;;;;;2.95;60.42;99464.19;125003;1102;104130;-79
2022/02/02 16:38:12;;;;;;;48.83;19.93;;;;;;;2.77;61.19;99480.58;125104;1102;102948;-80
2022/02/02 16:40:49;;;;;;;53.27;21.10;;;;;;;2.76;60.56;99476.23;125151;1099;104162;-81
2022/02/02 16:43:22;;;;;;;50.03;21.53;;;;;;;2.74;61.06;99477.83;125147;1099;104158;-80
2022/02/02 16:45:57;;;;;;;55.27;22.10;;;;;;;2.74;61.09;99474.36;124984;1099;104168;-78
2022/02/02 16:48:28;;;;;;;52.73;21.10;;;;;;;2.70;60.46;99476.80;125045;1102;104278;-77
2022/02/02 16:51:04;;;;;;;51.67;22.10;;;;;;;2.67;60.74;99479.23;125160;1099;105638;-77
2022/02/02 16:53:42;;;;;;;63.67;25.93;;;;;;;2.67;60.87;99481.82;125085;1102;104189;-78
2022/02/02 16:56:25;;;;;;;57.60;24.37;;;;;;;2.67;60.77;99478.34;124997;1102;104159;-78
2022/02/02 17:30:16;;;;;;;79.30;34.03;;;;;;;2.53;60.83;99498.36;126238;1099;104149;-80
2022/02/02 17:32:53;;;;;;;76.22;31.97;;;;;;;2.52;61.43;99496.57;126367;1099;104208;-78
2022/02/02 17:35:36;;;;;;;71.50;32.37;;;;;;;2.49;61.53;99484.38;126013;1099;104156;-78
2022/02/02 17:38:16;;;;;;;74.27;34.17;;;;;;;2.47;61.73;99491.16;126135;1099;104618;-79
2022/02/02 18:20:43;;;;;;;95.53;38.43;;;;;;;2.24;61.71;99499.43;126238;1099;104210;-79
2022/02/02 18:23:23;;;;;;;81.90;36.80;;;;;;;2.19;61.93;99500.89;126296;1099;104188;-79
2022/02/02 18:26:08;;;;;;;81.73;37.67;;;;;;;2.12;62.34;99497.98;126346;1099;104160;-79
2022/02/02 18:28:46;;;;;;;;;;;;;;;2.06;63.04;99510.59;126364;1099;104233;-79
2022/02/02 18:31:33;;;;;;;113.60;51.20;;;;;;;2.01;62.21;99514.64;125302;1099;104207;-79
2022/02/02 18:34:15;;;;;;;118.07;55.73;;;;;;;1.97;61.56;99517.86;125308;1099;103664;-79
2022/02/02 18:37:02;;;;;;;121.53;57.80;;;;;;;1.92;62.59;99520.20;125287;1099;105746;-79